createdAt,value
2023-05-09T00:02:06.216Z,92772.69
2023-05-09T00:07:08.090Z,92788.56
2023-05-09T00:12:09.951Z,92787.78
2023-05-09T00:17:14.549Z,92781.34
2023-05-09T00:22:17.776Z,92789.00
2023-05-09T00:27:19.626Z,92780.22
2023-05-09T00:32:21.468Z,92780.13
2023-05-09T00:37:23.671Z,92770.56
2023-05-09T00:42:25.518Z,92775.28
2023-05-09T00:47:30.727Z,92780.38
2023-05-09T00:52:33.749Z,92765.78
2023-05-09T00:57:36.343Z,92761.69
2023-05-09T01:02:42.128Z,92752.09
2023-05-09T01:08:16.424Z,92752.75
2023-05-09T01:13:30.588Z,92750.72
2023-05-09T01:18:51.874Z,92749.91
2023-05-09T01:24:24.845Z,92740.78
2023-05-09T01:29:47.706Z,92734.78
2023-05-09T01:34:53.045Z,92735.53
2023-05-09T01:39:58.411Z,92729.47
2023-05-09T01:45:00.754Z,92717.53
2023-05-09T01:50:05.404Z,92718.03
2023-05-09T01:55:08.650Z,92716.81
2023-05-09T02:00:13.314Z,92687.44
2023-05-09T02:05:17.711Z,92712.22
2023-05-09T02:10:20.849Z,92725.13
2023-05-09T02:15:23.878Z,92712.22
2023-05-09T02:20:25.693Z,92720.38
2023-05-09T02:25:27.987Z,92705.41
2023-05-09T02:30:36.839Z,92709.81
2023-05-09T02:35:42.305Z,92722.97
2023-05-09T02:40:44.691Z,92721.06
2023-05-09T02:45:46.584Z,92723.56
2023-05-09T02:50:48.403Z,92726.34
2023-05-09T02:55:50.451Z,92723.78
2023-05-09T03:00:52.235Z,92720.31
2023-05-09T03:05:54.287Z,92718.41
2023-05-09T03:10:57.136Z,92735.88
2023-05-09T03:15:59.181Z,92704.91
2023-05-09T03:21:01.049Z,92716.38
2023-05-09T03:26:04.411Z,92713.94
2023-05-09T03:31:06.934Z,92700.84
2023-05-09T03:36:09.178Z,92700.72
2023-05-09T03:41:13.649Z,92703.88
2023-05-09T03:46:15.853Z,92706.97
2023-05-09T03:51:20.979Z,92710.81
2023-05-09T03:56:24.209Z,92710.31
2023-05-09T04:01:27.336Z,92704.00
2023-05-09T04:06:33.236Z,92690.84
2023-05-09T04:11:35.850Z,92716.00
2023-05-09T04:16:44.297Z,92714.88
2023-05-09T04:21:46.203Z,92705.00
2023-05-09T04:26:48.346Z,92691.25
2023-05-09T04:31:54.879Z,92703.91
2023-05-09T04:37:00.170Z,92702.00
2023-05-09T04:42:02.661Z,92695.13
2023-05-09T04:47:04.777Z,92696.41
2023-05-09T04:52:07.147Z,92688.41
2023-05-09T04:57:17.211Z,92675.81
2023-05-09T05:02:22.879Z,92677.16
2023-05-09T05:07:27.554Z,92640.16
2023-05-09T05:12:29.570Z,92675.88
2023-05-09T05:17:31.617Z,92672.41
2023-05-09T05:22:36.444Z,92669.50
2023-05-09T05:27:38.460Z,92666.59
2023-05-09T05:32:41.798Z,92681.97
2023-05-09T05:37:44.328Z,92678.84
2023-05-09T05:42:47.168Z,92684.31
2023-05-09T05:47:49.201Z,92676.09
2023-05-09T05:52:51.945Z,92671.84
2023-05-09T05:57:54.508Z,92638.63
2023-05-09T06:02:56.527Z,92652.13
2023-05-09T06:08:08.253Z,92645.72
2023-05-09T06:13:10.278Z,92635.09
2023-05-09T06:18:15.007Z,92634.28
2023-05-09T06:23:22.114Z,92639.25
2023-05-09T06:28:23.971Z,92632.97
2023-05-09T06:33:25.725Z,92629.50
2023-05-09T06:38:27.526Z,92626.06
2023-05-09T06:43:29.304Z,92615.59
2023-05-09T06:48:31.092Z,92572.78
2023-05-09T06:53:32.839Z,92586.16
2023-05-09T06:58:34.848Z,92604.44
2023-05-09T07:03:36.645Z,92581.34
2023-05-09T07:08:38.650Z,92554.22
2023-05-09T07:13:40.526Z,92569.28
2023-05-09T07:18:42.310Z,92549.78
2023-05-09T07:23:44.062Z,92547.03
2023-05-09T07:28:45.888Z,92562.63
2023-05-09T07:33:47.707Z,92554.88
2023-05-09T07:38:52.576Z,92552.22
2023-05-09T07:43:57.516Z,92543.03
2023-05-09T07:48:59.296Z,92536.25
2023-05-09T07:54:01.314Z,92531.53
2023-05-09T07:59:03.452Z,92525.25
2023-05-09T08:04:06.705Z,92521.53
2023-05-09T08:09:08.847Z,92493.72
2023-05-09T08:14:10.901Z,92503.09
2023-05-09T08:19:12.678Z,92499.59
2023-05-09T08:24:14.415Z,92475.47
2023-05-09T08:29:17.729Z,92486.25
2023-05-09T08:34:20.917Z,92481.03
2023-05-09T08:39:22.729Z,92478.34
2023-05-09T08:44:25.918Z,92465.81
2023-05-09T08:49:28.362Z,92461.97
2023-05-09T08:54:30.382Z,92467.91
2023-05-09T08:59:35.134Z,92461.03
2023-05-09T09:04:37.058Z,92455.84
2023-05-09T09:09:45.256Z,92460.16
2023-05-09T09:14:50.244Z,92453.63
2023-05-09T09:19:55.976Z,92446.25
2023-05-09T09:24:57.803Z,92433.84
2023-05-09T09:30:10.702Z,92437.78
2023-05-09T09:35:12.538Z,92414.66
2023-05-09T09:40:14.689Z,92413.16
2023-05-09T09:45:18.377Z,92410.84
2023-05-09T09:50:23.253Z,92407.47
2023-05-09T09:55:25.216Z,92404.22
2023-05-09T10:00:28.374Z,92391.63
2023-05-09T10:05:31.484Z,92393.19
2023-05-09T10:10:38.170Z,92375.00
2023-05-09T10:15:52.179Z,92362.81
2023-05-09T10:20:56.743Z,92360.00
2023-05-09T10:26:18.699Z,92352.59
2023-05-09T10:31:28.401Z,92341.59
2023-05-09T10:36:31.186Z,92341.06
2023-05-09T10:41:33.508Z,92336.94
2023-05-09T10:46:36.018Z,92325.75
2023-05-09T10:51:37.963Z,92314.19
2023-05-09T10:56:39.908Z,92301.94
2023-05-09T11:01:41.697Z,92306.00
2023-05-09T11:06:54.019Z,92310.31
2023-05-09T11:11:58.341Z,92298.72
2023-05-09T11:17:03.069Z,92284.97
2023-05-09T11:22:15.052Z,92295.00
2023-05-09T11:27:20.733Z,92284.97
2023-05-09T11:32:28.444Z,92285.38
2023-05-09T11:37:31.147Z,92279.47
2023-05-09T11:42:32.987Z,92223.53
2023-05-09T11:47:36.935Z,92281.69
2023-05-09T11:52:39.341Z,92288.53
2023-05-09T11:57:44.208Z,92281.56
2023-05-09T12:02:47.616Z,92257.66
2023-05-09T12:07:50.210Z,92279.69
2023-05-09T12:12:55.479Z,92275.69
2023-05-09T12:18:05.868Z,92261.75
2023-05-09T12:23:09.685Z,92273.44
2023-05-09T12:28:11.525Z,92263.50
2023-05-09T12:33:13.470Z,92255.72
2023-05-09T12:38:21.712Z,92277.06
2023-05-09T12:43:23.518Z,92283.25
2023-05-09T12:48:25.674Z,92283.31
2023-05-09T12:53:31.157Z,92279.31
2023-05-09T12:58:33.574Z,92289.31
2023-05-09T13:03:38.005Z,92291.28
2023-05-09T13:08:40.992Z,92295.69
2023-05-09T13:13:43.067Z,92260.13
2023-05-09T13:18:44.841Z,92292.44
2023-05-09T13:23:46.694Z,92285.53
2023-05-09T13:28:48.770Z,92283.53
2023-05-09T13:33:51.988Z,92281.66
2023-05-09T13:38:54.171Z,92285.25
2023-05-09T13:43:55.950Z,92289.31
2023-05-09T13:48:57.674Z,92279.22
2023-05-09T13:53:59.468Z,92276.28
2023-05-09T13:59:01.328Z,92267.00
2023-05-09T14:04:03.344Z,92271.78
2023-05-09T14:09:05.151Z,92251.16
2023-05-09T14:14:07.104Z,92273.31
2023-05-09T14:19:09.134Z,92274.94
2023-05-09T14:24:15.073Z,92247.47
2023-05-09T14:29:17.715Z,92265.28
2023-05-09T14:34:19.486Z,92258.97
2023-05-09T14:39:21.323Z,92214.50
2023-05-09T14:44:25.042Z,92255.84
2023-05-09T14:49:26.932Z,92242.06
2023-05-09T14:54:28.762Z,92235.47
2023-05-09T14:59:30.661Z,92241.56
2023-05-09T15:04:32.570Z,92228.22
2023-05-09T15:09:34.428Z,92233.66
2023-05-09T15:14:36.721Z,92236.72
2023-05-09T15:19:38.704Z,92227.97
2023-05-09T15:24:44.204Z,92230.34
2023-05-09T15:29:46.623Z,92230.88
2023-05-09T15:34:48.426Z,92232.97
2023-05-09T15:39:50.391Z,92210.03
2023-05-09T15:44:52.827Z,92208.13
2023-05-09T15:49:54.691Z,92221.00
2023-05-09T15:54:56.615Z,92207.44
2023-05-09T15:59:58.460Z,92214.31
2023-05-09T16:05:00.292Z,92218.47
2023-05-09T16:10:02.159Z,92205.00
2023-05-09T16:15:04.723Z,92208.75
2023-05-09T16:20:09.130Z,92225.78
2023-05-09T16:25:11.107Z,92228.91
2023-05-09T16:30:13.620Z,92240.84
2023-05-09T16:35:15.665Z,92238.53
2023-05-09T16:40:18.765Z,92256.81
2023-05-09T16:45:20.716Z,92249.38
2023-05-09T16:50:23.250Z,92251.31
2023-05-09T16:55:25.088Z,92255.03
2023-05-09T17:00:27.207Z,92246.66
2023-05-09T17:05:29.270Z,92260.09
2023-05-09T17:10:31.120Z,92271.72
2023-05-09T17:15:34.290Z,92271.09
2023-05-09T17:20:36.098Z,92260.19
2023-05-09T17:25:37.877Z,92267.50
2023-05-09T17:30:39.824Z,92268.91
2023-05-09T17:35:41.674Z,92285.19
2023-05-09T17:40:44.277Z,92284.53
2023-05-09T17:45:46.422Z,92298.09
2023-05-09T17:50:48.424Z,92304.41
2023-05-09T17:55:50.789Z,92311.31
2023-05-09T18:00:55.015Z,92311.41
2023-05-09T18:05:57.226Z,92339.38
2023-05-09T18:10:59.055Z,92341.06
2023-05-09T18:16:01.813Z,92346.97
2023-05-09T18:21:05.297Z,92339.38
2023-05-09T18:26:08.490Z,92349.06
2023-05-09T18:31:11.884Z,92349.47
2023-05-09T18:36:15.180Z,92353.66
2023-05-09T18:41:17.323Z,92337.41
2023-05-09T18:46:21.104Z,92350.06
2023-05-09T18:51:24.088Z,92353.69
2023-05-09T18:56:25.850Z,92349.34
2023-05-09T19:01:27.691Z,92346.28
2023-05-09T19:06:29.664Z,92354.31
2023-05-09T19:11:31.702Z,92348.81
2023-05-09T19:16:33.796Z,92327.88
2023-05-09T19:21:36.141Z,92361.50
2023-05-09T19:26:38.068Z,92318.28
2023-05-09T19:31:39.948Z,92333.63
2023-05-09T19:36:41.776Z,92345.00
2023-05-09T19:41:43.981Z,92339.84
2023-05-09T19:46:45.922Z,92339.72
2023-05-09T19:51:47.838Z,92346.53
2023-05-09T19:56:49.681Z,92347.25
2023-05-09T20:01:51.456Z,92375.00
2023-05-09T20:06:54.108Z,92374.22
2023-05-09T20:11:55.926Z,92361.00
2023-05-09T20:16:57.892Z,92350.94
2023-05-09T20:22:01.229Z,92356.09
2023-05-09T20:27:03.353Z,92347.34
2023-05-09T20:32:05.397Z,92356.69
2023-05-09T20:37:07.682Z,92362.44
2023-05-09T20:42:09.710Z,92373.19
2023-05-09T20:47:11.441Z,92387.06
2023-05-09T20:52:13.254Z,92393.38
2023-05-09T20:57:15.016Z,92381.03
2023-05-09T21:02:16.803Z,92382.63
2023-05-09T21:07:19.421Z,92386.16
2023-05-09T21:12:21.507Z,92381.28
2023-05-09T21:17:23.287Z,92395.72
2023-05-09T21:22:25.060Z,92396.38
2023-05-09T21:27:27.082Z,92398.13
2023-05-09T21:32:29.039Z,92407.63
2023-05-09T21:37:30.863Z,92395.19
2023-05-09T21:42:32.706Z,92416.03
2023-05-09T21:47:34.567Z,92392.38
2023-05-09T21:52:36.544Z,92413.50
2023-05-09T21:57:38.411Z,92415.69
2023-05-09T22:02:42.929Z,92410.16
2023-05-09T22:07:44.845Z,92424.81
2023-05-09T22:12:46.724Z,92414.09
2023-05-09T22:17:48.577Z,92406.66
2023-05-09T22:22:50.305Z,92387.31
2023-05-09T22:27:52.048Z,92411.47
2023-05-09T22:32:53.808Z,92415.25
2023-05-09T22:37:55.787Z,92417.59
2023-05-09T22:42:57.588Z,92422.59
2023-05-09T22:47:59.466Z,92423.13
2023-05-09T22:53:01.769Z,92423.50
2023-05-09T22:58:03.764Z,92423.00
2023-05-09T23:03:05.689Z,92431.28
2023-05-09T23:08:07.485Z,92423.88
2023-05-09T23:13:09.346Z,92423.63
2023-05-09T23:18:11.190Z,92405.06
2023-05-09T23:23:12.925Z,92419.13
2023-05-09T23:28:14.724Z,92434.88
2023-05-09T23:33:16.768Z,92420.59
2023-05-09T23:38:18.807Z,92425.13
2023-05-09T23:43:20.608Z,92441.91
2023-05-09T23:48:23.274Z,92437.78
2023-05-09T23:53:25.586Z,92424.91
2023-05-09T23:58:27.398Z,92402.03
